Архив погоды в Благодарном

Метеограмма Благодарный
Вторник, 25 Сентября
Время местн. Темп Ветер Видим Явления Облачность нижн/средн/верх Атм. давл. Влжн Точка росы ВНГО R Сост. почвы Tg s
Напр Скр Прв ур.ст ур.м изм
03:00 +12.6° С-В 2 - 20 км - ясно 747 761 -1.1 82% +9.7° более 2.5 км - - - -
00:00 +12.8° штиль 0 - 20 км - ясно 748 762 -1 81% +9.7° более 2.5 км - - - -
Понедельник, 24 Сентября
Время местн. Темп Ветер Видим Явления Облачность нижн/средн/верх Атм. давл. Влжн Точка росы ВНГО R Сост. почвы Tg s
Напр Скр Прв ур.ст ур.м изм
21:00 +15.2° В 1 - 20 км - ясно 748 763 -0.5 78% +11.4° более 2.5 км - - - -
18:00 +19.1° В 1 - 20 км - переменная облачность 749 763 -0.8 65% +12.3° 1 км - - - -
15:00 +20.8° С,С-В 1 - 20 км - ясно 750 764 -1 58% +12.3° более 2.5 км - - - -
12:00 +18° С,С-З 3 - 20 км - облачно 751 765 0 67% +11.8° 1 км - - - -
09:00 +15.9° З 1 - 20 км - облачно 751 765 +0.8 75% +11.5° 1 км - - - -
06:00 +16.1° З,С-З 2 - 20 км - облачно 750 764 +1.2 72% +11.1° 1 км - Влажная (без луж) - -
03:00 +18.7° С-З 2 - 20 км небо без изменений {гроза, ливневые осадки} облачно 749 763 +0.5 74% +14° 1 км - - - -
00:00 +17.8° З 1 - 20 км гроза {ливневые осадки} облачно 748 763 +0.5 96% +17.1° 1 км - - - -
Воскресенье, 23 Сентября
Время местн. Темп Ветер Видим Явления Облачность нижн/средн/верх Атм. давл. Влжн Точка росы ВНГО R Сост. почвы Tg s
Напр Скр Прв ур.ст ур.м изм
21:00 +22° З,Ю-З 2 - 20 км - облачно 748 762 +0.6 49% +10.8° 1 км - - - -
18:00 +23.9° В 1 - 20 км - ясно 747 761 -0.5 40% +9.5° более 2.5 км - - - -
15:00 +27.9° Ю 2 - 20 км - ясно 748 761 -1.1 30% +8.5° более 2.5 км - - - -
12:00 +25.1° Ю-В 3 - 20 км - ясно 749 763 -1 40% +10.4° более 2.5 км - - - -
09:00 +19.3° Ю,Ю-В 2 - 20 км - переменная облачность 750 764 +0.1 67% +13° 1 км - - - -
06:00 +16.1° Ю-В 1 - 20 км - облачно 750 764 +0.1 81% +12.8° 1 км - Сухая (без трещин) - -
03:00 +16.5° В,Ю-В 2 - 20 км - облачно с прояснениями 750 764 -0.3 85% +13.9° 1 км - - - -
00:00 +16.3° В 2 - 20 км - ясно 750 764 0 83% +13.5° более 2.5 км - - - -
Суббота, 22 Сентября
Время местн. Темп Ветер Видим Явления Облачность нижн/средн/верх Атм. давл. Влжн Точка росы ВНГО R Сост. почвы Tg s
Напр Скр Прв ур.ст ур.м изм
21:00 +18.2° В 1 - 20 км - ясно 750 764 +0.6 51% +7.8° более 2.5 км - - - -
18:00 +24.7° В 3 - 20 км - ясно 749 763 -1.1 30% +5.8° более 2.5 км - - - -
15:00 +28.6° В 3 - 20 км - ясно 749 763 -1.1 25% +6.5° более 2.5 км - - - -
12:00 +27.7° В 4 - 20 км - ясно 750 764 -0.7 28% +7.5° более 2.5 км - - - -
06:00 +9.3° З 1 - 20 км - ясно 751 766 +0.4 72% +4.6° более 2.5 км - Сухая (без трещин) - -
03:00 +9.2° З,С-З 1 - 20 км - ясно 750 765 0 72% +4.4° более 2.5 км - - - -
00:00 +11.9° З,С-З 1 - 20 км - ясно 750 765 +0.2 63% +5.1° более 2.5 км - - - -
Пятница, 21 Сентября
Время местн. Темп Ветер Видим Явления Облачность нижн/средн/верх Атм. давл. Влжн Точка росы ВНГО R Сост. почвы Tg s
Напр Скр Прв ур.ст ур.м изм
21:00 +15.2° штиль 0 - 20 км - ясно 750 765 +0.7 52% +5.5° более 2.5 км - - - -